sensor_id;sensor_type;location;lat;lon;timestamp;temperature;humidity
27896;DHT22;15241;48.374;10.876;2022-07-30T00:00:11;19.30;99.90
27896;DHT22;15241;48.374;10.876;2022-07-30T00:05:11;19.30;99.90
27896;DHT22;15241;48.374;10.876;2022-07-30T00:10:10;19.20;99.90
27896;DHT22;15241;48.374;10.876;2022-07-30T00:15:10;19.20;99.90
27896;DHT22;15241;48.374;10.876;2022-07-30T00:20:11;19.20;99.90
27896;DHT22;15241;48.374;10.876;2022-07-30T00:25:10;19.10;99.90
27896;DHT22;15241;48.374;10.876;2022-07-30T00:30:10;18.90;99.90
27896;DHT22;15241;48.374;10.876;2022-07-30T00:35:10;19.00;99.90
27896;DHT22;15241;48.374;10.876;2022-07-30T00:40:10;18.90;99.90
27896;DHT22;15241;48.374;10.876;2022-07-30T00:45:10;18.80;99.90
27896;DHT22;15241;48.374;10.876;2022-07-30T00:50:12;18.90;99.90
27896;DHT22;15241;48.374;10.876;2022-07-30T00:55:13;18.80;99.90
27896;DHT22;15241;48.374;10.876;2022-07-30T01:00:15;18.90;99.90
27896;DHT22;15241;48.374;10.876;2022-07-30T01:05:14;18.80;99.90
27896;DHT22;15241;48.374;10.876;2022-07-30T01:10:14;18.80;99.90
27896;DHT22;15241;48.374;10.876;2022-07-30T01:15:14;18.80;99.90
27896;DHT22;15241;48.374;10.876;2022-07-30T01:20:16;18.80;99.90
27896;DHT22;15241;48.374;10.876;2022-07-30T01:25:23;18.70;99.90
27896;DHT22;15241;48.374;10.876;2022-07-30T01:30:22;18.60;99.90
27896;DHT22;15241;48.374;10.876;2022-07-30T01:35:24;18.50;99.90
27896;DHT22;15241;48.374;10.876;2022-07-30T01:40:24;18.30;99.90
27896;DHT22;15241;48.374;10.876;2022-07-30T01:45:27;18.30;99.90
27896;DHT22;15241;48.374;10.876;2022-07-30T01:50:27;18.40;99.90
27896;DHT22;15241;48.374;10.876;2022-07-30T01:55:29;18.40;99.90
27896;DHT22;15241;48.374;10.876;2022-07-30T02:00:30;18.30;99.90
27896;DHT22;15241;48.374;10.876;2022-07-30T02:10:43;18.30;99.90
27896;DHT22;15241;48.374;10.876;2022-07-30T02:15:48;18.40;99.90
27896;DHT22;15241;48.374;10.876;2022-07-30T02:20:50;18.30;99.90
27896;DHT22;15241;48.374;10.876;2022-07-30T02:25:49;18.30;99.90
27896;DHT22;15241;48.374;10.876;2022-07-30T02:30:51;18.30;99.90
27896;DHT22;15241;48.374;10.876;2022-07-30T02:35:52;18.40;99.90
27896;DHT22;15241;48.374;10.876;2022-07-30T02:40:52;18.40;99.90
27896;DHT22;15241;48.374;10.876;2022-07-30T02:45:52;18.40;99.90
27896;DHT22;15241;48.374;10.876;2022-07-30T02:50:53;18.40;99.90
27896;DHT22;15241;48.374;10.876;2022-07-30T02:55:54;18.20;99.90
27896;DHT22;15241;48.374;10.876;2022-07-30T03:00:54;18.30;99.90
27896;DHT22;15241;48.374;10.876;2022-07-30T03:05:54;18.30;99.90
27896;DHT22;15241;48.374;10.876;2022-07-30T03:10:55;18.30;99.90
27896;DHT22;15241;48.374;10.876;2022-07-30T03:15:57;18.20;99.90
27896;DHT22;15241;48.374;10.876;2022-07-30T03:20:57;18.20;99.90
27896;DHT22;15241;48.374;10.876;2022-07-30T03:25:59;18.30;99.90
27896;DHT22;15241;48.374;10.876;2022-07-30T03:30:59;18.40;99.90
27896;DHT22;15241;48.374;10.876;2022-07-30T03:35:59;18.40;99.90
27896;DHT22;15241;48.374;10.876;2022-07-30T03:40:58;18.50;99.90
27896;DHT22;15241;48.374;10.876;2022-07-30T03:45:58;18.40;99.90
27896;DHT22;15241;48.374;10.876;2022-07-30T03:56:06;18.30;99.90
27896;DHT22;15241;48.374;10.876;2022-07-30T04:01:05;18.10;99.90
27896;DHT22;15241;48.374;10.876;2022-07-30T04:06:05;18.10;99.90
27896;DHT22;15241;48.374;10.876;2022-07-30T04:11:04;18.10;99.90
27896;DHT22;15241;48.374;10.876;2022-07-30T04:16:07;18.10;99.90
27896;DHT22;15241;48.374;10.876;2022-07-30T04:21:07;18.20;99.90
27896;DHT22;15241;48.374;10.876;2022-07-30T04:26:07;18.20;99.90
27896;DHT22;15241;48.374;10.876;2022-07-30T04:31:06;18.20;99.90
27896;DHT22;15241;48.374;10.876;2022-07-30T04:36:07;18.30;99.90
27896;DHT22;15241;48.374;10.876;2022-07-30T04:41:06;18.20;99.90
27896;DHT22;15241;48.374;10.876;2022-07-30T04:46:05;18.30;99.90
27896;DHT22;15241;48.374;10.876;2022-07-30T04:51:07;18.30;99.90
27896;DHT22;15241;48.374;10.876;2022-07-30T04:56:06;18.40;99.90
27896;DHT22;15241;48.374;10.876;2022-07-30T05:01:07;18.30;99.90
27896;DHT22;15241;48.374;10.876;2022-07-30T05:06:06;18.40;99.90
27896;DHT22;15241;48.374;10.876;2022-07-30T05:11:05;18.50;99.90
27896;DHT22;15241;48.374;10.876;2022-07-30T05:16:05;18.50;99.90
27896;DHT22;15241;48.374;10.876;2022-07-30T05:21:05;18.40;99.90
27896;DHT22;15241;48.374;10.876;2022-07-30T05:26:04;18.50;99.90
27896;DHT22;15241;48.374;10.876;2022-07-30T05:31:03;18.60;99.90
27896;DHT22;15241;48.374;10.876;2022-07-30T05:36:02;18.70;99.90
27896;DHT22;15241;48.374;10.876;2022-07-30T05:41:01;18.70;99.90
27896;DHT22;15241;48.374;10.876;2022-07-30T05:46:00;18.70;99.90
27896;DHT22;15241;48.374;10.876;2022-07-30T05:50:59;18.90;99.90
27896;DHT22;15241;48.374;10.876;2022-07-30T05:55:59;19.00;99.90
27896;DHT22;15241;48.374;10.876;2022-07-30T06:00:58;18.90;99.90
27896;DHT22;15241;48.374;10.876;2022-07-30T06:05:57;19.10;99.90
27896;DHT22;15241;48.374;10.876;2022-07-30T06:10:56;19.10;99.90
27896;DHT22;15241;48.374;10.876;2022-07-30T06:15:55;19.20;99.90
27896;DHT22;15241;48.374;10.876;2022-07-30T06:20:54;19.30;99.90
27896;DHT22;15241;48.374;10.876;2022-07-30T06:25:53;19.40;99.90
27896;DHT22;15241;48.374;10.876;2022-07-30T06:30:52;19.40;99.90
27896;DHT22;15241;48.374;10.876;2022-07-30T06:35:51;19.40;99.90
27896;DHT22;15241;48.374;10.876;2022-07-30T06:40:50;19.40;99.90
27896;DHT22;15241;48.374;10.876;2022-07-30T06:45:49;19.30;99.90
27896;DHT22;15241;48.374;10.876;2022-07-30T06:50:48;19.50;99.90
27896;DHT22;15241;48.374;10.876;2022-07-30T06:55:47;19.60;99.90
27896;DHT22;15241;48.374;10.876;2022-07-30T07:00:46;19.60;99.90
27896;DHT22;15241;48.374;10.876;2022-07-30T07:05:45;19.70;99.90
27896;DHT22;15241;48.374;10.876;2022-07-30T07:10:44;19.90;99.90
27896;DHT22;15241;48.374;10.876;2022-07-30T07:15:43;19.90;99.90
27896;DHT22;15241;48.374;10.876;2022-07-30T07:20:42;20.10;99.90
27896;DHT22;15241;48.374;10.876;2022-07-30T07:25:41;20.10;99.90
27896;DHT22;15241;48.374;10.876;2022-07-30T07:30:40;20.20;99.90
27896;DHT22;15241;48.374;10.876;2022-07-30T07:35:39;20.30;99.90
27896;DHT22;15241;48.374;10.876;2022-07-30T07:40:38;20.50;99.90
27896;DHT22;15241;48.374;10.876;2022-07-30T07:45:37;20.60;99.90
27896;DHT22;15241;48.374;10.876;2022-07-30T07:50:36;20.60;99.90
27896;DHT22;15241;48.374;10.876;2022-07-30T07:55:36;20.80;99.90
27896;DHT22;15241;48.374;10.876;2022-07-30T08:00:35;21.00;99.90
27896;DHT22;15241;48.374;10.876;2022-07-30T08:05:34;21.10;99.90
27896;DHT22;15241;48.374;10.876;2022-07-30T08:10:33;21.20;99.90
27896;DHT22;15241;48.374;10.876;2022-07-30T08:15:32;21.30;99.90
27896;DHT22;15241;48.374;10.876;2022-07-30T08:20:31;21.40;99.90
27896;DHT22;15241;48.374;10.876;2022-07-30T08:25:30;21.50;99.90
27896;DHT22;15241;48.374;10.876;2022-07-30T08:30:29;21.60;99.90
27896;DHT22;15241;48.374;10.876;2022-07-30T08:35:28;21.90;99.90
27896;DHT22;15241;48.374;10.876;2022-07-30T08:40:27;21.90;99.90
27896;DHT22;15241;48.374;10.876;2022-07-30T08:45:26;22.10;99.90
27896;DHT22;15241;48.374;10.876;2022-07-30T08:50:26;22.30;99.90
27896;DHT22;15241;48.374;10.876;2022-07-30T08:55:25;22.50;99.90
27896;DHT22;15241;48.374;10.876;2022-07-30T09:00:24;22.40;99.90
27896;DHT22;15241;48.374;10.876;2022-07-30T09:05:24;22.70;99.90
27896;DHT22;15241;48.374;10.876;2022-07-30T09:10:23;23.10;99.90
27896;DHT22;15241;48.374;10.876;2022-07-30T09:15:23;23.30;99.90
27896;DHT22;15241;48.374;10.876;2022-07-30T09:20:24;23.60;99.90
27896;DHT22;15241;48.374;10.876;2022-07-30T09:25:37;23.80;99.90
27896;DHT22;15241;48.374;10.876;2022-07-30T09:30:49;24.10;99.90
27896;DHT22;15241;48.374;10.876;2022-07-30T09:35:52;24.00;99.90
27896;DHT22;15241;48.374;10.876;2022-07-30T09:40:51;24.40;99.90
27896;DHT22;15241;48.374;10.876;2022-07-30T09:45:52;24.70;99.90
27896;DHT22;15241;48.374;10.876;2022-07-30T09:50:52;24.90;99.90
27896;DHT22;15241;48.374;10.876;2022-07-30T09:55:51;24.80;99.90
27896;DHT22;15241;48.374;10.876;2022-07-30T10:00:52;25.00;99.90
27896;DHT22;15241;48.374;10.876;2022-07-30T10:05:54;25.20;99.30
27896;DHT22;15241;48.374;10.876;2022-07-30T10:10:53;25.20;99.90
27896;DHT22;15241;48.374;10.876;2022-07-30T10:15:52;25.50;98.00
27896;DHT22;15241;48.374;10.876;2022-07-30T10:20:51;25.50;96.40
27896;DHT22;15241;48.374;10.876;2022-07-30T10:25:54;25.80;96.40
27896;DHT22;15241;48.374;10.876;2022-07-30T10:30:54;25.90;95.60
27896;DHT22;15241;48.374;10.876;2022-07-30T10:35:53;26.30;96.70
27896;DHT22;15241;48.374;10.876;2022-07-30T10:40:56;26.60;95.60
27896;DHT22;15241;48.374;10.876;2022-07-30T10:46:01;26.60;93.80
27896;DHT22;15241;48.374;10.876;2022-07-30T10:50:58;26.90;92.30
27896;DHT22;15241;48.374;10.876;2022-07-30T10:56:14;26.70;90.20
27896;DHT22;15241;48.374;10.876;2022-07-30T11:01:14;27.00;90.70
27896;DHT22;15241;48.374;10.876;2022-07-30T11:06:25;27.40;90.60
27896;DHT22;15241;48.374;10.876;2022-07-30T11:17:01;27.70;88.30
27896;DHT22;15241;48.374;10.876;2022-07-30T11:27:40;28.00;89.20
27896;DHT22;15241;48.374;10.876;2022-07-30T11:32:39;27.70;89.90
27896;DHT22;15241;48.374;10.876;2022-07-30T11:38:04;27.90;88.80
27896;DHT22;15241;48.374;10.876;2022-07-30T11:43:20;28.10;86.20
27896;DHT22;15241;48.374;10.876;2022-07-30T11:48:19;28.20;86.80
27896;DHT22;15241;48.374;10.876;2022-07-30T11:53:19;28.30;85.40
27896;DHT22;15241;48.374;10.876;2022-07-30T11:58:27;28.30;84.20
27896;DHT22;15241;48.374;10.876;2022-07-30T12:03:27;28.50;82.30
27896;DHT22;15241;48.374;10.876;2022-07-30T12:08:27;28.40;83.90
27896;DHT22;15241;48.374;10.876;2022-07-30T12:13:26;28.50;81.90
27896;DHT22;15241;48.374;10.876;2022-07-30T12:18:27;28.70;83.70
27896;DHT22;15241;48.374;10.876;2022-07-30T12:23:27;28.50;79.70
27896;DHT22;15241;48.374;10.876;2022-07-30T12:28:27;28.50;79.10
27896;DHT22;15241;48.374;10.876;2022-07-30T12:33:27;29.00;78.90
27896;DHT22;15241;48.374;10.876;2022-07-30T12:38:27;29.50;78.80
27896;DHT22;15241;48.374;10.876;2022-07-30T12:43:47;29.80;79.30
27896;DHT22;15241;48.374;10.876;2022-07-30T12:48:55;30.10;76.90
27896;DHT22;15241;48.374;10.876;2022-07-30T12:53:55;29.60;75.20
27896;DHT22;15241;48.374;10.876;2022-07-30T12:58:55;30.50;78.00
27896;DHT22;15241;48.374;10.876;2022-07-30T13:04:04;30.70;77.20
27896;DHT22;15241;48.374;10.876;2022-07-30T13:09:04;30.80;75.20
27896;DHT22;15241;48.374;10.876;2022-07-30T13:14:03;30.90;73.90
27896;DHT22;15241;48.374;10.876;2022-07-30T13:19:04;31.10;74.50
27896;DHT22;15241;48.374;10.876;2022-07-30T13:24:05;30.50;71.70
27896;DHT22;15241;48.374;10.876;2022-07-30T13:29:04;30.50;71.60
27896;DHT22;15241;48.374;10.876;2022-07-30T13:34:03;30.90;73.90
27896;DHT22;15241;48.374;10.876;2022-07-30T13:39:02;31.30;74.90
27896;DHT22;15241;48.374;10.876;2022-07-30T13:44:00;31.70;72.70
27896;DHT22;15241;48.374;10.876;2022-07-30T13:48:59;31.80;73.10
27896;DHT22;15241;48.374;10.876;2022-07-30T13:53:58;31.30;70.20
27896;DHT22;15241;48.374;10.876;2022-07-30T13:58:57;31.50;70.50
27896;DHT22;15241;48.374;10.876;2022-07-30T14:09:04;31.70;68.20
27896;DHT22;15241;48.374;10.876;2022-07-30T14:14:03;31.50;66.30
27896;DHT22;15241;48.374;10.876;2022-07-30T14:19:02;31.90;66.00
27896;DHT22;15241;48.374;10.876;2022-07-30T14:24:01;32.00;66.90
27896;DHT22;15241;48.374;10.876;2022-07-30T14:29:00;32.00;66.00
27896;DHT22;15241;48.374;10.876;2022-07-30T14:33:59;31.30;64.70
27896;DHT22;15241;48.374;10.876;2022-07-30T14:38:59;31.60;65.90
27896;DHT22;15241;48.374;10.876;2022-07-30T14:43:58;31.00;65.30
27896;DHT22;15241;48.374;10.876;2022-07-30T14:48:57;31.20;67.50
27896;DHT22;15241;48.374;10.876;2022-07-30T14:53:56;31.40;65.40
27896;DHT22;15241;48.374;10.876;2022-07-30T14:58:55;31.70;65.80
27896;DHT22;15241;48.374;10.876;2022-07-30T15:03:54;31.80;65.00
27896;DHT22;15241;48.374;10.876;2022-07-30T15:08:53;32.00;64.30
27896;DHT22;15241;48.374;10.876;2022-07-30T15:13:52;31.70;63.10
27896;DHT22;15241;48.374;10.876;2022-07-30T15:18:51;32.10;64.80
27896;DHT22;15241;48.374;10.876;2022-07-30T15:23:50;32.10;63.50
27896;DHT22;15241;48.374;10.876;2022-07-30T15:28:50;32.00;62.70
27896;DHT22;15241;48.374;10.876;2022-07-30T15:33:49;31.90;62.90
27896;DHT22;15241;48.374;10.876;2022-07-30T15:38:48;32.10;63.70
27896;DHT22;15241;48.374;10.876;2022-07-30T15:43:47;31.80;62.70
27896;DHT22;15241;48.374;10.876;2022-07-30T15:48:46;32.10;63.60
27896;DHT22;15241;48.374;10.876;2022-07-30T15:53:45;31.70;61.30
27896;DHT22;15241;48.374;10.876;2022-07-30T15:58:44;31.90;61.70
27896;DHT22;15241;48.374;10.876;2022-07-30T16:03:43;31.90;62.00
27896;DHT22;15241;48.374;10.876;2022-07-30T16:08:41;31.80;62.40
27896;DHT22;15241;48.374;10.876;2022-07-30T16:13:40;31.30;62.00
27896;DHT22;15241;48.374;10.876;2022-07-30T16:18:39;31.20;63.10
27896;DHT22;15241;48.374;10.876;2022-07-30T16:23:38;31.40;63.50
27896;DHT22;15241;48.374;10.876;2022-07-30T16:28:37;31.10;62.90
27896;DHT22;15241;48.374;10.876;2022-07-30T16:33:36;31.10;63.60
27896;DHT22;15241;48.374;10.876;2022-07-30T16:38:35;31.10;64.80
27896;DHT22;15241;48.374;10.876;2022-07-30T16:43:34;31.00;63.90
27896;DHT22;15241;48.374;10.876;2022-07-30T16:48:33;30.90;64.50
27896;DHT22;15241;48.374;10.876;2022-07-30T16:53:32;30.60;63.90
27896;DHT22;15241;48.374;10.876;2022-07-30T16:58:31;30.40;64.90
27896;DHT22;15241;48.374;10.876;2022-07-30T17:03:30;30.40;64.60
27896;DHT22;15241;48.374;10.876;2022-07-30T17:08:29;30.30;65.50
27896;DHT22;15241;48.374;10.876;2022-07-30T17:13:28;30.00;65.50
27896;DHT22;15241;48.374;10.876;2022-07-30T17:18:27;29.80;66.60
27896;DHT22;15241;48.374;10.876;2022-07-30T17:23:26;29.50;65.70
27896;DHT22;15241;48.374;10.876;2022-07-30T17:28:25;29.30;66.10
27896;DHT22;15241;48.374;10.876;2022-07-30T17:33:25;29.10;66.80
27896;DHT22;15241;48.374;10.876;2022-07-30T17:38:24;28.80;67.30
27896;DHT22;15241;48.374;10.876;2022-07-30T17:43:23;28.60;67.60
27896;DHT22;15241;48.374;10.876;2022-07-30T17:48:22;28.40;68.50
27896;DHT22;15241;48.374;10.876;2022-07-30T17:53:20;28.30;69.90
27896;DHT22;15241;48.374;10.876;2022-07-30T17:58:19;27.90;71.70
27896;DHT22;15241;48.374;10.876;2022-07-30T18:03:18;27.70;73.30
27896;DHT22;15241;48.374;10.876;2022-07-30T18:08:17;27.40;74.00
27896;DHT22;15241;48.374;10.876;2022-07-30T18:13:17;27.30;75.30
27896;DHT22;15241;48.374;10.876;2022-07-30T18:18:16;27.20;76.80
27896;DHT22;15241;48.374;10.876;2022-07-30T18:23:15;27.00;75.90
27896;DHT22;15241;48.374;10.876;2022-07-30T18:28:14;26.60;76.30
27896;DHT22;15241;48.374;10.876;2022-07-30T18:33:13;26.40;76.80
27896;DHT22;15241;48.374;10.876;2022-07-30T18:38:12;26.20;77.00
27896;DHT22;15241;48.374;10.876;2022-07-30T18:43:11;26.20;77.70
27896;DHT22;15241;48.374;10.876;2022-07-30T18:48:10;26.00;76.60
27896;DHT22;15241;48.374;10.876;2022-07-30T18:53:09;25.90;76.40
27896;DHT22;15241;48.374;10.876;2022-07-30T18:58:08;25.90;79.50
27896;DHT22;15241;48.374;10.876;2022-07-30T19:03:09;25.80;80.90
27896;DHT22;15241;48.374;10.876;2022-07-30T19:08:09;25.70;81.60
27896;DHT22;15241;48.374;10.876;2022-07-30T19:13:08;25.50;80.80
27896;DHT22;15241;48.374;10.876;2022-07-30T19:18:07;25.40;81.50
27896;DHT22;15241;48.374;10.876;2022-07-30T19:23:06;25.30;84.00
27896;DHT22;15241;48.374;10.876;2022-07-30T19:28:05;25.10;86.70
27896;DHT22;15241;48.374;10.876;2022-07-30T19:33:05;25.00;88.10
27896;DHT22;15241;48.374;10.876;2022-07-30T19:38:05;25.00;89.60
27896;DHT22;15241;48.374;10.876;2022-07-30T19:43:04;24.70;90.50
27896;DHT22;15241;48.374;10.876;2022-07-30T19:48:03;24.70;91.00
27896;DHT22;15241;48.374;10.876;2022-07-30T19:53:02;24.60;91.50
27896;DHT22;15241;48.374;10.876;2022-07-30T19:58:02;24.60;91.80
27896;DHT22;15241;48.374;10.876;2022-07-30T20:03:01;24.40;92.90
27896;DHT22;15241;48.374;10.876;2022-07-30T20:08:00;24.40;93.30
27896;DHT22;15241;48.374;10.876;2022-07-30T20:12:59;24.30;94.10
27896;DHT22;15241;48.374;10.876;2022-07-30T20:17:58;24.10;94.20
27896;DHT22;15241;48.374;10.876;2022-07-30T20:22:57;23.90;94.20
27896;DHT22;15241;48.374;10.876;2022-07-30T20:27:56;23.90;94.50
27896;DHT22;15241;48.374;10.876;2022-07-30T20:32:55;23.80;95.30
27896;DHT22;15241;48.374;10.876;2022-07-30T20:37:54;23.70;95.80
27896;DHT22;15241;48.374;10.876;2022-07-30T20:42:53;23.60;96.90
27896;DHT22;15241;48.374;10.876;2022-07-30T20:47:52;23.40;97.40
27896;DHT22;15241;48.374;10.876;2022-07-30T20:52:51;23.30;97.80
27896;DHT22;15241;48.374;10.876;2022-07-30T20:57:50;23.20;98.00
27896;DHT22;15241;48.374;10.876;2022-07-30T21:02:49;23.10;98.70
27896;DHT22;15241;48.374;10.876;2022-07-30T21:07:48;23.00;99.30
27896;DHT22;15241;48.374;10.876;2022-07-30T21:12:47;22.80;99.90
27896;DHT22;15241;48.374;10.876;2022-07-30T21:17:46;22.80;99.90
27896;DHT22;15241;48.374;10.876;2022-07-30T21:22:45;22.70;99.90
27896;DHT22;15241;48.374;10.876;2022-07-30T21:27:44;22.60;99.90
27896;DHT22;15241;48.374;10.876;2022-07-30T21:32:43;22.60;99.90
27896;DHT22;15241;48.374;10.876;2022-07-30T21:37:42;22.60;99.90
27896;DHT22;15241;48.374;10.876;2022-07-30T21:42:41;22.50;99.90
27896;DHT22;15241;48.374;10.876;2022-07-30T21:47:40;22.40;99.90
27896;DHT22;15241;48.374;10.876;2022-07-30T21:52:39;22.30;99.90
27896;DHT22;15241;48.374;10.876;2022-07-30T21:57:38;22.20;99.90
27896;DHT22;15241;48.374;10.876;2022-07-30T22:02:37;22.20;99.90
27896;DHT22;15241;48.374;10.876;2022-07-30T22:07:36;22.10;99.90
27896;DHT22;15241;48.374;10.876;2022-07-30T22:12:35;22.00;99.90
27896;DHT22;15241;48.374;10.876;2022-07-30T22:17:34;22.00;99.90
27896;DHT22;15241;48.374;10.876;2022-07-30T22:22:33;21.90;99.90
27896;DHT22;15241;48.374;10.876;2022-07-30T22:27:32;21.80;99.90
27896;DHT22;15241;48.374;10.876;2022-07-30T22:32:31;21.70;99.90
27896;DHT22;15241;48.374;10.876;2022-07-30T22:37:30;21.60;99.90
27896;DHT22;15241;48.374;10.876;2022-07-30T22:42:29;21.60;99.90
27896;DHT22;15241;48.374;10.876;2022-07-30T22:47:29;21.50;99.90
27896;DHT22;15241;48.374;10.876;2022-07-30T22:52:28;21.40;99.90
27896;DHT22;15241;48.374;10.876;2022-07-30T22:57:29;21.30;99.90
27896;DHT22;15241;48.374;10.876;2022-07-30T23:02:28;21.20;99.90
27896;DHT22;15241;48.374;10.876;2022-07-30T23:07:27;21.20;99.90
27896;DHT22;15241;48.374;10.876;2022-07-30T23:12:26;21.10;99.90
27896;DHT22;15241;48.374;10.876;2022-07-30T23:17:25;21.10;99.90
27896;DHT22;15241;48.374;10.876;2022-07-30T23:22:24;21.10;99.90
27896;DHT22;15241;48.374;10.876;2022-07-30T23:27:22;21.00;99.90
27896;DHT22;15241;48.374;10.876;2022-07-30T23:32:21;21.00;99.90
27896;DHT22;15241;48.374;10.876;2022-07-30T23:37:20;21.00;99.90
27896;DHT22;15241;48.374;10.876;2022-07-30T23:42:19;20.80;99.90
27896;DHT22;15241;48.374;10.876;2022-07-30T23:47:18;20.70;99.90
27896;DHT22;15241;48.374;10.876;2022-07-30T23:52:17;20.70;99.90
27896;DHT22;15241;48.374;10.876;2022-07-30T23:57:16;20.60;99.90
